Time;durP1;ratioP1;P1;durP2;ratioP2;P2;SDS_P1;SDS_P2;PMS_P1;PMS_P2;Temp;Humidity;BMP_temperature;BMP_pressure;BME280_temperature;BME280_humidity;BME280_pressure;Samples;Min_cycle;Max_cycle;Signal;HPM_P1;HPM_P2
2023/07/29 00:02:08;;;;;;;2.65;1.45;;;18.60;99.90;;;;;;5032734;28;20029;-68
2023/07/29 00:04:34;;;;;;;2.40;1.40;;;18.60;99.90;;;;;;5050180;28;20480;-69
2023/07/29 00:06:59;;;;;;;4.82;2.15;;;18.60;99.90;;;;;;5032864;28;20111;-69
2023/07/29 00:09:25;;;;;;;5.15;2.15;;;18.60;99.90;;;;;;5038905;28;20037;-69
2023/07/29 00:11:51;;;;;;;3.63;1.50;;;18.60;99.90;;;;;;5030464;28;20083;-69
2023/07/29 00:14:17;;;;;;;4.53;1.42;;;18.60;99.90;;;;;;5012052;28;20035;-69
2023/07/29 00:16:42;;;;;;;4.60;2.15;;;18.60;99.90;;;;;;5029118;28;20060;-69
2023/07/29 00:19:08;;;;;;;3.03;1.45;;;18.60;99.90;;;;;;5012751;28;20155;-69
2023/07/29 00:21:34;;;;;;;1.88;1.20;;;18.60;99.90;;;;;;5030079;28;20022;-69
2023/07/29 00:24:01;;;;;;;3.38;1.27;;;18.60;99.90;;;;;;5030631;28;20033;-69
2023/07/29 00:26:28;;;;;;;4.07;1.30;;;18.60;99.90;;;;;;5034121;28;20045;-69
2023/07/29 00:28:58;;;;;;;4.40;1.48;;;18.60;99.90;;;;;;5034417;28;20037;-69
2023/07/29 00:31:24;;;;;;;3.95;1.40;;;18.60;99.90;;;;;;5032010;28;20159;-69
2023/07/29 00:33:50;;;;;;;1.77;1.15;;;18.60;99.90;;;;;;5037954;28;20120;-69
2023/07/29 00:36:15;;;;;;;4.22;1.60;;;18.60;99.90;;;;;;5045204;28;20021;-69
2023/07/29 00:38:41;;;;;;;1.77;1.15;;;18.60;99.90;;;;;;5036162;28;20029;-69
2023/07/29 00:41:07;;;;;;;11.82;2.47;;;18.60;99.90;;;;;;5053800;28;20029;-70
2023/07/29 00:43:33;;;;;;;1.60;0.90;;;18.60;99.90;;;;;;5035286;28;20120;-70
2023/07/29 00:46:00;;;;;;;2.88;1.10;;;18.50;99.90;;;;;;5035619;28;20096;-69
2023/07/29 00:48:26;;;;;;;3.65;1.55;;;18.50;99.90;;;;;;5053619;28;20037;-69
2023/07/29 00:50:54;;;;;;;1.77;1.05;;;18.50;99.90;;;;;;5035866;28;20064;-69
2023/07/29 00:53:20;;;;;;;1.23;0.70;;;18.50;99.90;;;;;;5052998;28;20025;-69
2023/07/29 00:55:46;;;;;;;1.20;0.75;;;18.50;99.90;;;;;;5035521;28;20041;-69
2023/07/29 00:58:12;;;;;;;2.15;1.40;;;18.50;99.90;;;;;;5036084;28;20029;-69
2023/07/29 01:00:38;;;;;;;3.47;1.08;;;18.50;99.90;;;;;;5053256;28;20052;-69
2023/07/29 01:03:05;;;;;;;2.50;1.08;;;18.60;99.90;;;;;;5052322;28;20557;-69
2023/07/29 01:05:45;;;;;;;1.27;0.60;;;18.60;99.90;;;;;;5015547;28;20084;-69
2023/07/29 01:08:34;;;;;;;1.60;0.85;;;18.60;99.90;;;;;;5027250;28;20107;-69
2023/07/29 01:11:24;;;;;;;0.98;0.88;;;18.60;99.90;;;;;;5043003;28;20035;-70
2023/07/29 01:14:11;;;;;;;1.75;0.88;;;18.60;99.90;;;;;;5032637;28;20480;-70
2023/07/29 01:16:46;;;;;;;0.77;0.50;;;18.70;99.90;;;;;;5032945;28;20060;-69
2023/07/29 01:19:42;;;;;;;1.17;0.60;;;18.70;99.90;;;;;;5031815;28;20029;-71
2023/07/29 01:22:09;;;;;;;1.00;0.70;;;18.70;99.90;;;;;;5031474;28;20117;-71
2023/07/29 01:24:35;;;;;;;1.00;0.60;;;18.70;99.90;;;;;;5017356;28;20022;-70
2023/07/29 01:27:04;;;;;;;1.52;0.88;;;18.70;99.90;;;;;;4995374;28;20042;-69
2023/07/29 01:29:30;;;;;;;1.80;0.65;;;18.70;99.90;;;;;;5012944;28;20103;-70
2023/07/29 01:32:07;;;;;;;1.35;0.75;;;18.70;99.90;;;;;;4995335;28;20038;-69
2023/07/29 01:34:46;;;;;;;2.03;1.00;;;18.60;99.90;;;;;;4995713;28;20095;-69
2023/07/29 01:37:20;;;;;;;0.55;0.40;;;18.70;99.90;;;;;;5012141;28;20038;-69
2023/07/29 01:39:49;;;;;;;0.90;0.47;;;18.70;99.90;;;;;;5012914;28;20022;-69
2023/07/29 01:42:15;;;;;;;2.15;0.90;;;18.60;99.90;;;;;;5031197;28;20026;-70
2023/07/29 01:44:42;;;;;;;2.60;1.05;;;18.60;99.90;;;;;;5031199;28;20030;-70
2023/07/29 01:47:08;;;;;;;1.20;0.65;;;18.50;99.90;;;;;;5030998;28;20294;-69
2023/07/29 01:49:34;;;;;;;4.43;0.85;;;18.50;99.90;;;;;;5032546;28;20132;-70
2023/07/29 01:52:00;;;;;;;1.20;0.70;;;18.50;99.90;;;;;;5014675;28;20429;-70
2023/07/29 01:54:25;;;;;;;2.45;1.00;;;18.50;99.90;;;;;;5030612;28;20041;-69
2023/07/29 01:56:51;;;;;;;1.15;0.52;;;18.50;99.90;;;;;;5032059;28;20033;-69
2023/07/29 01:59:17;;;;;;;2.30;0.70;;;18.50;99.90;;;;;;5032407;28;20041;-69
2023/07/29 02:01:43;;;;;;;1.15;0.60;;;18.40;99.90;;;;;;5031937;28;20055;-70
2023/07/29 02:04:08;;;;;;;0.93;0.40;;;18.50;99.90;;;;;;5031606;28;20047;-69
2023/07/29 02:06:34;;;;;;;2.35;0.82;;;18.50;99.90;;;;;;5032021;28;20124;-69
2023/07/29 02:09:00;;;;;;;1.48;0.60;;;18.40;99.90;;;;;;5030975;28;20554;-69
2023/07/29 02:11:27;;;;;;;3.05;1.13;;;18.40;99.90;;;;;;5030850;28;20120;-69
2023/07/29 02:13:55;;;;;;;1.58;0.52;;;18.40;99.90;;;;;;5030222;28;20115;-69
2023/07/29 02:16:22;;;;;;;1.85;0.50;;;18.30;99.90;;;;;;5012223;28;20030;-69
2023/07/29 02:18:49;;;;;;;1.33;0.68;;;18.40;99.90;;;;;;5015670;28;20022;-69
2023/07/29 02:21:15;;;;;;;2.17;0.88;;;18.40;99.90;;;;;;5017364;28;20520;-69
2023/07/29 02:23:41;;;;;;;1.63;0.77;;;18.30;99.90;;;;;;5042708;28;20032;-69
2023/07/29 02:26:07;;;;;;;1.30;0.63;;;18.30;99.90;;;;;;5051581;28;20033;-69
2023/07/29 02:28:33;;;;;;;4.03;1.13;;;18.30;99.90;;;;;;5033689;28;20795;-69
2023/07/29 02:31:22;;;;;;;1.42;0.93;;;18.30;99.90;;;;;;5051522;28;20071;-69
2023/07/29 02:33:49;;;;;;;1.05;0.50;;;18.30;99.90;;;;;;5032872;28;20121;-69
2023/07/29 02:36:15;;;;;;;3.38;1.02;;;18.30;99.90;;;;;;5033276;28;20108;-70
2023/07/29 02:38:41;;;;;;;1.38;0.90;;;18.30;99.90;;;;;;5017226;28;20071;-69
2023/07/29 02:41:09;;;;;;;1.05;0.73;;;18.30;99.90;;;;;;5017514;28;20082;-69
2023/07/29 02:43:36;;;;;;;2.95;1.13;;;18.40;99.90;;;;;;5016424;28;20036;-69
2023/07/29 02:46:02;;;;;;;1.42;0.75;;;18.40;99.90;;;;;;5033357;28;20037;-69
2023/07/29 02:48:28;;;;;;;1.55;0.82;;;18.40;99.90;;;;;;5050795;28;20057;-69
2023/07/29 02:50:55;;;;;;;1.48;0.95;;;18.40;99.90;;;;;;5033323;28;20071;-69
2023/07/29 02:53:22;;;;;;;1.45;0.75;;;18.40;99.90;;;;;;5050316;28;20116;-69
2023/07/29 02:55:48;;;;;;;1.90;1.15;;;18.40;99.90;;;;;;5033576;28;20029;-69
2023/07/29 02:58:14;;;;;;;1.63;0.82;;;18.40;99.90;;;;;;5051017;28;20025;-69
2023/07/29 03:00:41;;;;;;;1.77;0.90;;;18.40;99.90;;;;;;5033063;28;20102;-69
2023/07/29 03:03:08;;;;;;;1.25;0.77;;;18.40;99.90;;;;;;5036061;28;20025;-69
2023/07/29 03:05:34;;;;;;;1.30;0.70;;;18.50;99.90;;;;;;5007372;28;20116;-69
2023/07/29 03:08:00;;;;;;;1.77;0.88;;;18.40;99.90;;;;;;5039325;28;20086;-69
2023/07/29 03:10:25;;;;;;;5.07;1.13;;;18.40;99.90;;;;;;5024911;28;20032;-70
2023/07/29 03:12:54;;;;;;;1.33;0.50;;;18.40;99.90;;;;;;5012166;28;20672;-70
2023/07/29 03:15:24;;;;;;;1.48;0.80;;;18.40;99.90;;;;;;5012984;28;20037;-69
2023/07/29 03:17:51;;;;;;;1.20;0.63;;;18.30;99.90;;;;;;5029331;28;20271;-69
2023/07/29 03:20:17;;;;;;;1.13;0.68;;;18.40;99.90;;;;;;5017840;28;20068;-69
2023/07/29 03:22:44;;;;;;;1.50;0.80;;;18.40;99.90;;;;;;4992777;28;20033;-69
2023/07/29 03:25:10;;;;;;;1.95;1.00;;;18.40;99.90;;;;;;5010974;28;20030;-69
2023/07/29 03:27:36;;;;;;;2.30;1.27;;;18.40;99.90;;;;;;5009449;28;20053;-69
2023/07/29 03:30:06;;;;;;;2.30;0.93;;;18.40;99.90;;;;;;5010974;28;20092;-69
2023/07/29 03:32:33;;;;;;;1.00;0.60;;;18.40;99.90;;;;;;5009989;28;20034;-69
2023/07/29 03:34:58;;;;;;;1.13;0.88;;;18.40;99.90;;;;;;4992798;28;20469;-68
2023/07/29 03:37:24;;;;;;;1.20;0.60;;;18.40;99.90;;;;;;5004940;28;20034;-69
2023/07/29 03:39:51;;;;;;;1.90;1.20;;;18.40;99.90;;;;;;5029167;28;20578;-68
2023/07/29 03:42:18;;;;;;;1.70;0.80;;;18.30;99.90;;;;;;5012388;28;20052;-67
2023/07/29 03:44:43;;;;;;;1.23;0.63;;;18.30;99.90;;;;;;5030559;28;20048;-68
2023/07/29 03:47:09;;;;;;;0.93;0.70;;;18.30;99.90;;;;;;5030451;28;20034;-68
2023/07/29 03:49:35;;;;;;;1.65;0.73;;;18.30;99.90;;;;;;5030127;28;20041;-69
2023/07/29 03:52:00;;;;;;;1.48;0.77;;;18.30;99.90;;;;;;5030312;28;20037;-68
2023/07/29 03:54:26;;;;;;;1.92;0.70;;;18.30;99.90;;;;;;5029655;28;20404;-68
2023/07/29 03:56:52;;;;;;;0.80;0.63;;;18.30;99.90;;;;;;5030182;28;20393;-68
2023/07/29 03:59:17;;;;;;;1.73;0.63;;;18.30;99.90;;;;;;5031715;28;20068;-68
2023/07/29 04:01:43;;;;;;;1.08;0.75;;;18.30;99.90;;;;;;5034405;28;20683;-69
2023/07/29 04:04:09;;;;;;;1.70;1.13;;;18.40;99.90;;;;;;5032103;28;20037;-68
2023/07/29 04:06:35;;;;;;;1.40;0.95;;;18.40;99.90;;;;;;5032824;28;20033;-68
2023/07/29 04:09:01;;;;;;;1.55;0.60;;;18.40;99.90;;;;;;5032891;28;20068;-69
2023/07/29 04:11:26;;;;;;;2.10;1.00;;;18.40;99.90;;;;;;5021854;28;20494;-69
2023/07/29 04:13:52;;;;;;;1.63;0.77;;;18.40;99.90;;;;;;5013438;28;20239;-69
2023/07/29 04:16:18;;;;;;;1.95;1.00;;;18.50;99.90;;;;;;5014668;28;20106;-69
2023/07/29 04:18:43;;;;;;;2.08;0.93;;;18.50;99.90;;;;;;5032676;28;20045;-69
2023/07/29 04:21:09;;;;;;;3.42;0.82;;;18.50;99.90;;;;;;5033897;28;20389;-69
2023/07/29 04:23:35;;;;;;;1.00;0.70;;;18.50;99.90;;;;;;5055367;22;20198;-72
2023/07/29 04:26:01;;;;;;;1.63;0.88;;;18.40;99.90;;;;;;5038198;28;20385;-72
2023/07/29 04:28:26;;;;;;;2.63;0.80;;;18.40;99.90;;;;;;5033904;28;20033;-72
2023/07/29 04:30:52;;;;;;;3.25;0.82;;;18.40;99.90;;;;;;5015979;28;20039;-72
2023/07/29 04:33:18;;;;;;;1.05;0.50;;;18.40;99.90;;;;;;5001283;28;20033;-71
2023/07/29 04:35:44;;;;;;;1.27;0.85;;;18.40;99.90;;;;;;5012432;28;20030;-72
2023/07/29 04:38:10;;;;;;;2.20;1.20;;;18.30;99.90;;;;;;5013961;28;20470;-72
2023/07/29 04:40:35;;;;;;;3.08;1.08;;;18.30;99.90;;;;;;5013708;28;20034;-72
2023/07/29 04:43:01;;;;;;;2.10;1.00;;;18.30;99.90;;;;;;4986615;28;20676;-72
2023/07/29 04:45:30;;;;;;;1.10;0.60;;;18.30;99.90;;;;;;5014070;28;20037;-72
2023/07/29 04:47:58;;;;;;;1.20;0.60;;;18.30;99.90;;;;;;5005614;28;20096;-72
2023/07/29 04:50:24;;;;;;;2.63;1.10;;;18.30;99.90;;;;;;5013915;28;20117;-72
2023/07/29 04:52:49;;;;;;;1.10;0.77;;;18.30;99.90;;;;;;5012820;28;20113;-72
2023/07/29 04:55:15;;;;;;;1.83;1.02;;;18.30;99.90;;;;;;5013455;28;20565;-72
2023/07/29 04:57:41;;;;;;;5.03;1.80;;;18.30;99.90;;;;;;5026610;28;20037;-69
2023/07/29 05:00:07;;;;;;;2.20;1.15;;;18.30;99.90;;;;;;5015440;28;20021;-69
2023/07/29 05:02:33;;;;;;;3.38;1.80;;;18.30;99.90;;;;;;5031879;28;20022;-70
2023/07/29 05:04:59;;;;;;;2.22;1.00;;;18.40;99.90;;;;;;5031285;28;20022;-70
2023/07/29 05:07:24;;;;;;;2.88;1.20;;;18.50;99.90;;;;;;5031778;28;20057;-71
2023/07/29 05:09:50;;;;;;;4.05;1.48;;;18.50;99.90;;;;;;5031872;28;20030;-71
2023/07/29 05:12:16;;;;;;;2.20;1.20;;;18.60;99.90;;;;;;5013784;28;20670;-70
2023/07/29 05:14:41;;;;;;;1.40;0.82;;;18.60;99.90;;;;;;5016667;28;20022;-71
2023/07/29 05:17:07;;;;;;;3.55;1.50;;;18.60;99.90;;;;;;5031992;28;20084;-71
2023/07/29 05:19:33;;;;;;;3.53;1.45;;;18.60;99.90;;;;;;5032969;28;20030;-71
2023/07/29 05:21:58;;;;;;;2.63;1.33;;;18.70;99.90;;;;;;5032173;28;20457;-69
2023/07/29 05:24:24;;;;;;;4.35;1.13;;;18.70;99.90;;;;;;5032116;28;20083;-70
2023/07/29 05:26:50;;;;;;;4.15;0.80;;;18.80;99.90;;;;;;5032733;28;20478;-69
2023/07/29 05:29:15;;;;;;;3.22;1.20;;;18.80;99.90;;;;;;5032612;28;20481;-69
2023/07/29 05:31:41;;;;;;;2.15;1.25;;;18.90;99.90;;;;;;5032420;28;20501;-69
2023/07/29 05:34:07;;;;;;;2.08;0.63;;;18.90;99.90;;;;;;5029235;28;20099;-70
2023/07/29 05:36:33;;;;;;;1.08;0.90;;;18.80;99.90;;;;;;5026863;28;20025;-69
2023/07/29 05:38:58;;;;;;;1.83;0.82;;;18.90;99.90;;;;;;5041386;28;20045;-69
2023/07/29 05:41:27;;;;;;;1.77;0.70;;;18.90;99.90;;;;;;5034356;28;20041;-69
2023/07/29 05:43:53;;;;;;;2.85;1.60;;;18.90;99.90;;;;;;5051597;28;20064;-69
2023/07/29 05:46:18;;;;;;;2.35;1.08;;;18.80;99.90;;;;;;5052103;28;20068;-69
2023/07/29 05:48:44;;;;;;;3.03;1.50;;;18.80;99.90;;;;;;5052323;28;20423;-69
2023/07/29 05:51:10;;;;;;;2.42;1.08;;;18.80;99.90;;;;;;5051999;28;20029;-70
2023/07/29 05:53:35;;;;;;;2.97;1.33;;;18.80;99.90;;;;;;5038403;28;20029;-70
2023/07/29 05:56:01;;;;;;;3.28;1.40;;;18.80;99.90;;;;;;5033447;28;20051;-69
2023/07/29 05:58:27;;;;;;;2.38;1.30;;;18.80;99.90;;;;;;5015403;28;20039;-70
2023/07/29 06:00:53;;;;;;;2.28;1.45;;;18.80;99.90;;;;;;5026300;28;20034;-62
2023/07/29 06:03:18;;;;;;;1.58;0.82;;;18.80;99.90;;;;;;5030881;28;20033;-60
2023/07/29 06:05:44;;;;;;;10.38;1.60;;;18.90;99.90;;;;;;5032101;28;20065;-62
2023/07/29 06:08:10;;;;;;;1.55;0.88;;;19.00;99.90;;;;;;5031658;28;20030;-56
2023/07/29 06:10:36;;;;;;;3.58;1.60;;;19.10;99.90;;;;;;5027629;28;20112;-53
2023/07/29 06:13:01;;;;;;;3.75;1.90;;;19.10;99.90;;;;;;5011225;28;20343;-54
2023/07/29 06:15:27;;;;;;;1.08;0.82;;;19.20;99.90;;;;;;5011836;28;20041;-50
2023/07/29 06:17:53;;;;;;;2.72;1.50;;;19.20;99.90;;;;;;5012249;28;20480;-50
2023/07/29 06:20:19;;;;;;;1.63;0.98;;;19.30;99.90;;;;;;5011910;28;20026;-51
2023/07/29 06:22:44;;;;;;;2.25;1.10;;;19.30;99.90;;;;;;5009827;28;20040;-53
2023/07/29 06:25:10;;;;;;;2.75;1.65;;;19.40;99.90;;;;;;5047433;28;20439;-64
2023/07/29 06:27:36;;;;;;;2.92;1.30;;;19.50;99.90;;;;;;5051363;28;20035;-64
2023/07/29 06:30:02;;;;;;;2.30;1.30;;;19.50;99.90;;;;;;5051537;28;20079;-64
2023/07/29 06:32:28;;;;;;;4.68;1.55;;;19.60;99.90;;;;;;5050295;28;20025;-64
2023/07/29 06:34:54;;;;;;;6.82;1.95;;;19.60;99.90;;;;;;5051393;28;20036;-64
2023/07/29 06:37:20;;;;;;;1.90;1.20;;;19.70;99.90;;;;;;5051097;28;20385;-66
2023/07/29 06:39:46;;;;;;;2.65;1.35;;;19.90;99.90;;;;;;5033103;28;20025;-66
2023/07/29 06:42:12;;;;;;;2.90;1.33;;;19.90;99.90;;;;;;5051219;28;20032;-66
2023/07/29 06:44:37;;;;;;;1.92;1.13;;;20.00;99.90;;;;;;5050547;28;20021;-67
2023/07/29 06:47:04;;;;;;;2.83;1.52;;;20.10;99.90;;;;;;5051020;28;20469;-67
2023/07/29 06:49:29;;;;;;;2.33;1.08;;;20.10;99.90;;;;;;5050879;28;20086;-66
2023/07/29 06:51:55;;;;;;;2.17;1.17;;;20.30;99.90;;;;;;5050986;28;20494;-66
2023/07/29 06:54:28;;;;;;;2.28;0.90;;;20.40;99.90;;;;;;5049612;28;20028;-67
2023/07/29 06:56:54;;;;;;;2.42;1.00;;;20.40;99.90;;;;;;5019260;28;20037;-66
2023/07/29 06:59:19;;;;;;;8.48;1.33;;;20.60;99.90;;;;;;5012671;28;20079;-67
2023/07/29 07:01:46;;;;;;;3.08;0.80;;;20.60;99.90;;;;;;4993569;28;20034;-67
2023/07/29 07:04:12;;;;;;;3.88;1.67;;;20.70;99.90;;;;;;5013615;28;20116;-67
2023/07/29 07:06:37;;;;;;;5.53;2.55;;;20.80;99.90;;;;;;5031092;28;20117;-67
2023/07/29 07:09:03;;;;;;;1.52;1.05;;;20.90;99.90;;;;;;5032077;28;20069;-67
2023/07/29 07:11:29;;;;;;;9.15;2.58;;;20.90;99.90;;;;;;5018066;28;20752;-67
2023/07/29 07:13:55;;;;;;;4.40;1.90;;;21.00;99.90;;;;;;5039642;28;20112;-67
2023/07/29 07:16:20;;;;;;;1.73;1.00;;;21.00;99.90;;;;;;5050371;28;20163;-67
2023/07/29 07:18:46;;;;;;;1.30;0.77;;;21.10;99.90;;;;;;5050638;28;20037;-67
2023/07/29 07:21:12;;;;;;;1.27;0.85;;;21.20;99.90;;;;;;5050740;28;20036;-67
2023/07/29 07:23:39;;;;;;;1.42;0.90;;;21.30;99.90;;;;;;5031622;28;20033;-68
2023/07/29 07:26:05;;;;;;;1.98;1.13;;;21.20;99.90;;;;;;5036805;28;20105;-67
2023/07/29 07:28:30;;;;;;;1.58;0.85;;;21.30;99.90;;;;;;5030182;28;20053;-67
2023/07/29 07:30:56;;;;;;;1.70;0.98;;;21.40;99.90;;;;;;5030327;28;20036;-67
2023/07/29 07:33:22;;;;;;;1.40;0.77;;;21.20;99.90;;;;;;5028844;28;20037;-67
2023/07/29 07:35:48;;;;;;;1.65;0.85;;;21.20;99.90;;;;;;5030084;28;20029;-68
2023/07/29 07:38:14;;;;;;;2.35;0.90;;;21.10;99.90;;;;;;5030288;28;20021;-68
2023/07/29 07:40:40;;;;;;;3.83;1.23;;;21.10;99.90;;;;;;5030159;28;20064;-69
2023/07/29 07:43:05;;;;;;;1.73;0.80;;;21.10;99.90;;;;;;5029652;28;20477;-67
2023/07/29 07:45:32;;;;;;;1.77;1.00;;;21.20;99.90;;;;;;5012873;28;20075;-67
2023/07/29 07:47:58;;;;;;;1.48;0.95;;;21.20;99.90;;;;;;5012775;28;20444;-67
2023/07/29 07:50:24;;;;;;;1.80;0.93;;;21.40;99.90;;;;;;5030416;28;20037;-67
2023/07/29 07:52:50;;;;;;;1.73;0.80;;;21.40;99.90;;;;;;5029406;28;20029;-67
2023/07/29 07:55:16;;;;;;;2.92;1.50;;;21.50;99.90;;;;;;5040050;28;20036;-67
2023/07/29 07:57:41;;;;;;;4.75;1.13;;;21.70;99.90;;;;;;5030495;28;20080;-67
2023/07/29 08:00:09;;;;;;;1.50;0.90;;;21.60;99.90;;;;;;5030279;28;20117;-67
2023/07/29 08:02:35;;;;;;;2.78;1.27;;;21.50;99.90;;;;;;5028726;28;20527;-67
2023/07/29 08:05:00;;;;;;;2.10;0.88;;;21.70;99.90;;;;;;5030465;28;20069;-67
2023/07/29 08:07:26;;;;;;;1.80;1.00;;;21.80;99.90;;;;;;5030151;28;20037;-68
2023/07/29 08:09:52;;;;;;;9.68;1.80;;;21.50;99.90;;;;;;5030337;28;20040;-67
2023/07/29 08:12:17;;;;;;;4.93;1.42;;;21.10;99.90;;;;;;5011607;28;20760;-66
2023/07/29 08:14:43;;;;;;;1.58;0.93;;;20.90;99.90;;;;;;5010557;28;20042;-66
2023/07/29 08:17:09;;;;;;;6.00;1.30;;;20.90;99.90;;;;;;5010391;28;20096;-66
2023/07/29 08:19:35;;;;;;;3.72;1.38;;;20.90;99.90;;;;;;5010522;28;20034;-66
2023/07/29 08:22:03;;;;;;;2.80;1.10;;;21.00;99.90;;;;;;5010248;28;20128;-66
2023/07/29 08:24:29;;;;;;;2.20;0.98;;;21.00;99.90;;;;;;5004257;28;20037;-66
2023/07/29 08:26:54;;;;;;;1.92;0.70;;;20.90;99.90;;;;;;4996143;28;20044;-65
2023/07/29 08:29:20;;;;;;;1.60;0.68;;;20.90;99.90;;;;;;5030239;28;20068;-66
2023/07/29 08:31:46;;;;;;;4.13;1.13;;;21.00;99.90;;;;;;5029829;28;20844;-66
2023/07/29 08:34:11;;;;;;;2.45;0.90;;;21.20;99.90;;;;;;5029612;28;20029;-66
2023/07/29 08:36:37;;;;;;;0.65;0.50;;;21.10;99.90;;;;;;5030034;28;20034;-66
2023/07/29 08:39:03;;;;;;;1.33;0.65;;;21.20;99.90;;;;;;5029982;28;20033;-66
2023/07/29 08:42:04;;;;;;;0.30;0.28;;;21.30;99.90;;;;;;5012161;28;20392;-66
2023/07/29 08:44:43;;;;;;;0.88;0.60;;;21.40;99.90;;;;;;5025475;28;20037;-65
2023/07/29 08:47:09;;;;;;;1.70;0.90;;;21.40;99.90;;;;;;5001027;28;20120;-63
2023/07/29 08:49:36;;;;;;;1.55;0.85;;;21.60;99.90;;;;;;5039846;28;20037;-64
2023/07/29 08:52:04;;;;;;;3.25;1.27;;;21.80;99.90;;;;;;5041169;28;20100;-63
2023/07/29 08:54:30;;;;;;;5.40;1.23;;;21.90;99.90;;;;;;5044110;28;20025;-64
2023/07/29 08:56:56;;;;;;;4.88;0.73;;;21.80;99.90;;;;;;5035477;28;20044;-64
2023/07/29 08:59:23;;;;;;;2.22;1.00;;;21.90;99.90;;;;;;5035270;28;20029;-64
2023/07/29 09:01:49;;;;;;;1.83;0.90;;;22.00;99.90;;;;;;5019178;28;20064;-64
2023/07/29 09:04:15;;;;;;;0.75;0.50;;;22.10;99.90;;;;;;5029429;28;20018;-64
2023/07/29 09:06:44;;;;;;;4.13;0.80;;;22.10;99.90;;;;;;5023408;28;20374;-65
2023/07/29 09:09:10;;;;;;;2.83;1.20;;;22.20;99.90;;;;;;5020797;28;20537;-65
2023/07/29 09:11:36;;;;;;;1.38;0.90;;;22.50;99.90;;;;;;5018950;28;20096;-64
2023/07/29 09:14:02;;;;;;;3.22;0.90;;;22.50;99.90;;;;;;5037024;28;20103;-64
2023/07/29 09:16:27;;;;;;;0.88;0.70;;;22.50;99.90;;;;;;5026471;28;20481;-64
2023/07/29 09:18:55;;;;;;;1.27;0.57;;;22.50;99.90;;;;;;5035138;28;20032;-63
2023/07/29 09:21:26;;;;;;;0.73;0.45;;;22.70;99.90;;;;;;5052666;28;20067;-63
2023/07/29 09:23:52;;;;;;;1.95;0.80;;;22.90;99.90;;;;;;5017420;28;20083;-70
2023/07/29 09:26:26;;;;;;;2.83;0.95;;;23.00;99.90;;;;;;5025391;28;20028;-67
2023/07/29 09:28:58;;;;;;;1.70;0.90;;;22.80;99.90;;;;;;5026887;28;20029;-69
2023/07/29 09:31:25;;;;;;;3.03;1.95;;;22.90;99.90;;;;;;5037620;28;20518;-68
2023/07/29 09:34:04;;;;;;;1.95;1.13;;;22.80;99.90;;;;;;5051621;28;20044;-70
2023/07/29 09:36:34;;;;;;;3.05;1.40;;;23.00;99.90;;;;;;5034743;28;20060;-72
2023/07/29 09:39:00;;;;;;;3.33;0.93;;;23.10;99.90;;;;;;5017816;28;20039;-68
2023/07/29 09:41:32;;;;;;;1.85;1.15;;;23.30;99.90;;;;;;5034508;28;20793;-69
2023/07/29 09:44:05;;;;;;;1.50;0.75;;;23.60;99.90;;;;;;5051284;28;20029;-67
2023/07/29 09:46:36;;;;;;;1.73;1.02;;;23.50;99.90;;;;;;5052517;28;20108;-68
2023/07/29 09:49:04;;;;;;;3.72;0.75;;;23.30;99.90;;;;;;5051948;28;20039;-68
2023/07/29 09:51:30;;;;;;;1.10;0.70;;;23.50;99.90;;;;;;5025998;28;20037;-69
2023/07/29 09:53:58;;;;;;;1.20;0.52;;;23.70;99.90;;;;;;5030968;28;20489;-70
2023/07/29 09:56:26;;;;;;;1.85;1.17;;;24.10;99.90;;;;;;5030968;28;20040;-70
2023/07/29 09:58:55;;;;;;;2.85;1.42;;;24.40;99.90;;;;;;5032043;28;20040;-68
2023/07/29 10:01:20;;;;;;;2.33;0.90;;;24.30;99.90;;;;;;5012294;28;20060;-71
2023/07/29 10:03:48;;;;;;;0.93;0.70;;;24.20;99.90;;;;;;5031065;28;20048;-69
2023/07/29 10:06:15;;;;;;;2.17;1.10;;;24.20;99.90;;;;;;5014041;28;20071;-70
2023/07/29 10:08:43;;;;;;;0.85;0.50;;;23.90;99.90;;;;;;5014104;28;20033;-70
2023/07/29 10:11:10;;;;;;;1.00;0.68;;;24.00;99.90;;;;;;5014201;28;20033;-70
2023/07/29 10:13:38;;;;;;;1.25;0.65;;;24.10;99.90;;;;;;5030159;28;20037;-68
2023/07/29 10:16:07;;;;;;;1.45;0.70;;;24.10;99.90;;;;;;5034288;28;20037;-70
2023/07/29 10:18:34;;;;;;;1.30;0.60;;;24.30;99.90;;;;;;5025719;28;20025;-69
2023/07/29 10:21:02;;;;;;;1.02;0.63;;;24.20;99.90;;;;;;5007125;28;20024;-69
2023/07/29 10:23:38;;;;;;;1.80;0.98;;;24.10;99.90;;;;;;5036236;23;20567;-66
2023/07/29 10:26:09;;;;;;;2.78;0.70;;;24.20;99.90;;;;;;5043462;28;20032;-65
2023/07/29 10:28:42;;;;;;;1.10;0.70;;;24.20;99.90;;;;;;5028957;28;20029;-67
2023/07/29 10:31:09;;;;;;;1.00;0.60;;;24.30;99.90;;;;;;5030317;28;20421;-67
2023/07/29 10:33:37;;;;;;;1.00;0.60;;;24.40;99.90;;;;;;5005342;28;20100;-67
2023/07/29 10:36:04;;;;;;;1.15;0.50;;;24.30;99.90;;;;;;5008306;28;20088;-67
2023/07/29 10:38:30;;;;;;;1.35;0.82;;;24.60;99.90;;;;;;5012088;28;20643;-67
2023/07/29 10:40:59;;;;;;;1.60;0.68;;;24.50;99.90;;;;;;5009374;28;20467;-68
2023/07/29 10:43:37;;;;;;;1.50;0.90;;;24.60;99.90;;;;;;5015541;28;20104;-67
2023/07/29 10:46:23;;;;;;;0.98;0.60;;;24.70;99.90;;;;;;5022858;28;20112;-68
2023/07/29 10:48:56;;;;;;;1.05;0.55;;;25.10;99.90;;;;;;5031134;28;20039;-68
2023/07/29 10:51:36;;;;;;;1.27;0.50;;;25.40;99.90;;;;;;5029889;28;20048;-68
2023/07/29 10:54:16;;;;;;;2.53;0.82;;;25.50;99.90;;;;;;5028907;28;20037;-68
2023/07/29 10:56:47;;;;;;;1.20;0.60;;;25.30;99.90;;;;;;5029543;28;20125;-67
2023/07/29 10:59:14;;;;;;;2.25;0.75;;;25.40;99.90;;;;;;5010752;28;20046;-67
2023/07/29 11:01:43;;;;;;;0.88;0.57;;;25.40;99.90;;;;;;5016098;28;20034;-67
2023/07/29 11:04:23;;;;;;;1.27;0.70;;;25.50;99.90;;;;;;5014803;28;20030;-67
2023/07/29 11:07:04;;;;;;;1.60;0.70;;;25.70;99.90;;;;;;5020871;28;20037;-68
2023/07/29 11:09:48;;;;;;;2.05;0.63;;;25.80;99.90;;;;;;4990942;28;20030;-68
2023/07/29 11:12:40;;;;;;;1.85;0.90;;;25.40;99.90;;;;;;5008870;28;20037;-68
2023/07/29 11:15:29;;;;;;;2.13;1.08;;;23.90;99.90;;;;;;5009498;28;20080;-68
2023/07/29 11:18:01;;;;;;;1.23;0.85;;;23.10;99.90;;;;;;5010144;28;20061;-68
2023/07/29 11:20:31;;;;;;;1.38;0.73;;;22.70;99.90;;;;;;5011360;28;20018;-68
2023/07/29 11:23:03;;;;;;;1.30;0.73;;;22.70;99.90;;;;;;5009061;28;20036;-68
2023/07/29 11:25:31;;;;;;;1.55;0.90;;;23.00;99.90;;;;;;4990060;28;20040;-68
2023/07/29 11:27:59;;;;;;;1.42;0.60;;;23.50;99.90;;;;;;4991772;28;20062;-68
2023/07/29 11:30:30;;;;;;;1.10;0.70;;;24.00;99.90;;;;;;5006118;28;20434;-68
2023/07/29 11:32:58;;;;;;;1.13;0.65;;;24.60;99.90;;;;;;5005919;28;20101;-68
2023/07/29 11:35:24;;;;;;;0.88;0.50;;;25.10;99.90;;;;;;5006524;28;20034;-67
2023/07/29 11:37:51;;;;;;;1.45;0.70;;;25.00;99.90;;;;;;5006185;28;20074;-68
2023/07/29 11:40:22;;;;;;;1.20;0.57;;;25.20;99.90;;;;;;5006065;28;20498;-68
2023/07/29 11:42:50;;;;;;;;;;;25.30;99.90;;;;;;5005880;28;20060;-69
2023/07/29 11:45:17;;;;;;;1.75;0.88;;;25.40;99.90;;;;;;5005910;28;19976;-69
2023/07/29 11:47:42;;;;;;;1.13;0.65;;;25.60;99.90;;;;;;5005835;28;20085;-69
2023/07/29 11:50:11;;;;;;;3.17;1.42;;;25.90;99.90;;;;;;4991089;28;20034;-69
2023/07/29 11:52:39;;;;;;;1.27;0.68;;;26.00;99.90;;;;;;4988862;28;20486;-69
2023/07/29 11:55:06;;;;;;;1.55;0.80;;;25.90;99.90;;;;;;5003046;28;20093;-68
2023/07/29 11:57:36;;;;;;;1.27;0.65;;;25.70;99.90;;;;;;5006052;28;20081;-68
2023/07/29 12:00:05;;;;;;;1.02;0.63;;;25.90;99.90;;;;;;5004491;28;20062;-68
2023/07/29 12:02:32;;;;;;;1.40;0.77;;;26.10;99.90;;;;;;5006937;28;20076;-68
2023/07/29 12:04:58;;;;;;;1.13;0.88;;;25.90;99.90;;;;;;5007715;28;20032;-69
2023/07/29 12:07:24;;;;;;;1.55;0.70;;;26.30;99.90;;;;;;5007888;28;20359;-68
2023/07/29 12:09:51;;;;;;;1.67;0.73;;;26.30;99.90;;;;;;4991731;28;20316;-68
2023/07/29 12:12:18;;;;;;;5.95;0.65;;;26.60;99.90;;;;;;5004249;28;20038;-68
2023/07/29 12:14:46;;;;;;;1.83;0.65;;;26.70;99.90;;;;;;4989360;28;20047;-68
2023/07/29 12:17:13;;;;;;;1.88;0.63;;;26.50;99.90;;;;;;4989859;28;20399;-69
2023/07/29 12:19:40;;;;;;;1.45;1.00;;;26.60;99.90;;;;;;4990100;28;20026;-68
2023/07/29 12:22:08;;;;;;;5.50;0.88;;;26.70;99.10;;;;;;4993310;28;20084;-68
2023/07/29 12:24:39;;;;;;;1.13;0.70;;;26.80;98.70;;;;;;5019311;28;20477;-68
2023/07/29 12:27:10;;;;;;;1.67;0.65;;;26.70;99.80;;;;;;5032634;28;20342;-68
2023/07/29 12:29:41;;;;;;;;;;;26.50;99.60;;;;;;5032923;28;20026;-68
2023/07/29 12:32:07;;;;;;;1.83;1.00;;;26.50;98.90;;;;;;5031980;28;20353;-68
2023/07/29 12:34:34;;;;;;;0.70;0.40;;;26.30;97.60;;;;;;5032642;28;20044;-68
2023/07/29 12:37:03;;;;;;;2.10;0.70;;;26.50;97.50;;;;;;5032570;28;20040;-68
2023/07/29 12:39:32;;;;;;;0.73;0.40;;;26.60;95.80;;;;;;5033404;28;20033;-68
2023/07/29 12:42:00;;;;;;;1.05;0.50;;;26.70;95.70;;;;;;5033718;28;20481;-68
2023/07/29 12:44:34;;;;;;;0.50;0.38;;;27.10;95.70;;;;;;5031459;28;20456;-68
2023/07/29 12:47:05;;;;;;;1.20;0.68;;;27.40;94.60;;;;;;5032003;28;20029;-68
2023/07/29 12:49:31;;;;;;;2.45;0.60;;;27.60;94.10;;;;;;5032009;28;20037;-68
2023/07/29 12:51:59;;;;;;;0.40;0.35;;;27.80;93.60;;;;;;5032251;28;20029;-68